Terminal Aerodrome Forecast
Issued by NWS Amarillo, TX

Home | Current Version | Previous Version | Text Only | Print | Product List | Glossary On
Versions: 1 2 3 4 5 6 7 8 9 10 11 12 13 14 15 16 17 18 19 20 21
868
FTUS44 KAMA 190520
TAFGUY
TAF
KGUY 190520Z 1906/2006 21007KT P6SM FEW300
     FM191200 28007KT P6SM SKC
     FM191600 32008KT P6SM SCT300=

USA.gov is the U.S. government's official web portal to all federal, state and local government web resources and services.